Time;durP1;ratioP1;P1;durP2;ratioP2;P2;SDS_P1;SDS_P2;PMS_P1;PMS_P2;Temp;Humidity;BMP_temperature;BMP_pressure;BME280_temperature;BME280_humidity;BME280_pressure;Samples;Min_cycle;Max_cycle;Signal;HPM_P1;HPM_P2
2022/06/07 00:00:03;;;;;;;214.52;110.13;;;;;;;;;;5032176;28;20235;-52
2022/06/07 00:02:30;;;;;;;205.30;108.28;;;;;;;;;;5031100;28;20553;-52
2022/06/07 00:04:57;;;;;;;123.70;88.43;;;;;;;;;;5023833;28;20207;-52
2022/06/07 00:07:23;;;;;;;132.68;90.47;;;;;;;;;;5025715;28;20237;-52
2022/06/07 00:09:49;;;;;;;213.00;112.25;;;;;;;;;;5022375;28;20213;-52
2022/06/07 00:12:17;;;;;;;257.83;117.10;;;;;;;;;;5024523;28;20231;-52
2022/06/07 00:14:43;;;;;;;214.73;106.80;;;;;;;;;;5021947;28;20215;-52
2022/06/07 00:17:09;;;;;;;229.63;107.45;;;;;;;;;;5019661;28;20634;-52
2022/06/07 00:19:35;;;;;;;201.70;106.40;;;;;;;;;;5019111;28;20714;-52
2022/06/07 00:22:01;;;;;;;147.73;94.35;;;;;;;;;;5027314;28;20207;-52
2022/06/07 00:24:27;;;;;;;155.02;93.63;;;;;;;;;;5023330;28;20321;-52
2022/06/07 00:26:53;;;;;;;121.55;90.03;;;;;;;;;;5038876;28;20219;-52
2022/06/07 00:29:21;;;;;;;152.20;91.30;;;;;;;;;;5028119;28;20196;-52
2022/06/07 00:31:47;;;;;;;151.38;92.25;;;;;;;;;;5034248;28;20218;-52
2022/06/07 00:34:13;;;;;;;281.42;122.80;;;;;;;;;;5023171;28;20215;-52
2022/06/07 00:36:39;;;;;;;199.93;108.32;;;;;;;;;;5034093;28;20221;-52
2022/06/07 00:39:05;;;;;;;186.57;103.65;;;;;;;;;;5025158;28;20219;-52
2022/06/07 00:41:32;;;;;;;152.95;97.22;;;;;;;;;;5023017;28;20195;-52
2022/06/07 00:44:16;;;;;;;167.55;98.43;;;;;;;;;;5029446;28;20243;-52
2022/06/07 00:46:44;;;;;;;162.00;97.93;;;;;;;;;;5030623;28;20219;-52
2022/06/07 00:49:12;;;;;;;239.23;113.35;;;;;;;;;;5032724;28;20258;-52
2022/06/07 00:51:39;;;;;;;153.32;95.45;;;;;;;;;;5026631;28;20227;-52
2022/06/07 00:54:04;;;;;;;174.50;104.05;;;;;;;;;;5028717;28;20212;-52
2022/06/07 00:56:30;;;;;;;103.10;86.28;;;;;;;;;;5034487;28;20223;-52
2022/06/07 00:58:57;;;;;;;187.82;107.93;;;;;;;;;;5022953;28;20219;-52
2022/06/07 01:01:23;;;;;;;185.05;102.13;;;;;;;;;;5025489;28;20252;-52
2022/06/07 01:03:50;;;;;;;133.40;90.65;;;;;;;;;;5030281;28;20231;-52
2022/06/07 01:11:46;;;;;;;109.78;86.70;;;;;;;;;;5029566;28;20728;-52
2022/06/07 01:14:12;;;;;;;162.10;96.53;;;;;;;;;;5033837;28;20191;-52
2022/06/07 01:16:38;;;;;;;161.75;96.82;;;;;;;;;;5036273;28;20211;-53
2022/06/07 01:19:04;;;;;;;188.23;103.55;;;;;;;;;;5028684;28;21001;-52
2022/06/07 01:21:31;;;;;;;145.63;92.68;;;;;;;;;;5029420;28;20224;-52
2022/06/07 01:23:57;;;;;;;182.10;100.43;;;;;;;;;;5039618;28;20206;-52
2022/06/07 01:26:23;;;;;;;235.93;111.60;;;;;;;;;;5030829;28;20259;-52
2022/06/07 01:28:50;;;;;;;260.92;119.20;;;;;;;;;;5028842;28;20227;-52
2022/06/07 01:31:16;;;;;;;266.02;121.25;;;;;;;;;;5028505;28;20212;-52
2022/06/07 01:33:42;;;;;;;176.32;99.65;;;;;;;;;;5032780;28;20239;-52
2022/06/07 01:36:11;;;;;;;140.23;93.85;;;;;;;;;;5027780;28;20343;-52
2022/06/07 01:38:38;;;;;;;158.85;91.15;;;;;;;;;;5028103;28;20211;-52
2022/06/07 01:43:49;;;;;;;235.40;105.35;;;;;;;;;;5024387;28;20226;-52
2022/06/07 01:46:15;;;;;;;241.23;106.60;;;;;;;;;;5026298;28;20251;-52
2022/06/07 01:48:41;;;;;;;101.47;78.28;;;;;;;;;;5034121;28;20227;-52
2022/06/07 01:51:08;;;;;;;168.18;89.55;;;;;;;;;;5025337;28;20592;-52
2022/06/07 01:53:35;;;;;;;129.93;81.13;;;;;;;;;;5036277;28;20665;-52
2022/06/07 01:56:10;;;;;;;153.82;87.60;;;;;;;;;;5028218;28;20215;-52
2022/06/07 01:58:36;;;;;;;132.25;79.20;;;;;;;;;;5028231;28;20222;-52
2022/06/07 02:01:02;;;;;;;131.48;81.13;;;;;;;;;;5029899;28;20243;-53
2022/06/07 02:03:28;;;;;;;101.90;71.70;;;;;;;;;;5031794;28;20587;-52
2022/06/07 02:05:58;;;;;;;115.25;76.20;;;;;;;;;;5029597;28;20215;-52
2022/06/07 02:08:24;;;;;;;122.93;79.88;;;;;;;;;;5032701;28;20216;-52
2022/06/07 02:10:50;;;;;;;121.43;80.82;;;;;;;;;;5029752;28;20211;-52
2022/06/07 02:13:16;;;;;;;183.40;98.85;;;;;;;;;;5032853;28;20264;-52
2022/06/07 02:15:42;;;;;;;141.43;85.35;;;;;;;;;;5034334;28;20256;-52
2022/06/07 02:18:08;;;;;;;142.90;86.47;;;;;;;;;;5041003;28;20259;-52
2022/06/07 02:20:34;;;;;;;134.05;84.97;;;;;;;;;;5033229;28;20555;-52
2022/06/07 02:23:02;;;;;;;164.13;91.38;;;;;;;;;;5030501;28;20842;-52
2022/06/07 02:25:28;;;;;;;148.65;88.43;;;;;;;;;;5016906;28;20265;-52
2022/06/07 02:27:54;;;;;;;103.90;73.00;;;;;;;;;;5027667;28;20618;-52
2022/06/07 02:30:20;;;;;;;231.27;104.45;;;;;;;;;;5031302;28;20216;-52
2022/06/07 02:32:46;;;;;;;141.27;84.20;;;;;;;;;;5026250;28;20663;-52
2022/06/07 02:35:12;;;;;;;162.32;86.38;;;;;;;;;;5030468;28;20182;-52
2022/06/07 02:37:39;;;;;;;123.05;76.25;;;;;;;;;;5025289;28;20307;-52
2022/06/07 02:40:05;;;;;;;126.35;76.82;;;;;;;;;;5027967;28;20738;-52
2022/06/07 02:42:31;;;;;;;146.65;79.57;;;;;;;;;;5029546;28;20211;-52
2022/06/07 02:44:58;;;;;;;164.80;77.88;;;;;;;;;;5022783;28;20708;-52
2022/06/07 02:47:24;;;;;;;112.65;71.75;;;;;;;;;;5031846;28;20219;-52
2022/06/07 02:49:52;;;;;;;165.30;84.57;;;;;;;;;;5027815;28;20207;-52
2022/06/07 02:52:18;;;;;;;151.88;81.78;;;;;;;;;;5026400;28;20257;-52
2022/06/07 02:54:44;;;;;;;114.93;71.38;;;;;;;;;;5026804;28;20223;-52
2022/06/07 02:57:10;;;;;;;126.95;77.30;;;;;;;;;;5032506;28;20216;-52
2022/06/07 02:59:35;;;;;;;109.80;68.40;;;;;;;;;;5029965;28;20234;-52
2022/06/07 03:02:01;;;;;;;84.97;62.45;;;;;;;;;;5031654;28;20215;-52
2022/06/07 03:04:27;;;;;;;157.25;82.28;;;;;;;;;;5022723;28;20285;-52
2022/06/07 03:06:53;;;;;;;102.82;69.63;;;;;;;;;;5030786;28;20306;-52
2022/06/07 03:09:19;;;;;;;94.55;66.43;;;;;;;;;;5020963;28;20568;-52
2022/06/07 03:11:45;;;;;;;136.25;73.43;;;;;;;;;;5034620;28;20195;-52
2022/06/07 03:14:11;;;;;;;106.32;69.10;;;;;;;;;;5026963;28;20194;-52
2022/06/07 03:16:37;;;;;;;161.35;79.93;;;;;;;;;;5026388;28;20211;-52
2022/06/07 03:19:03;;;;;;;208.98;88.97;;;;;;;;;;5022786;28;22507;-52
2022/06/07 03:21:29;;;;;;;150.07;76.80;;;;;;;;;;5029770;28;20215;-52
2022/06/07 03:23:55;;;;;;;187.35;85.32;;;;;;;;;;5028108;28;20321;-52
2022/06/07 03:26:22;;;;;;;111.93;72.07;;;;;;;;;;5029102;28;20176;-52
2022/06/07 03:28:48;;;;;;;190.52;93.65;;;;;;;;;;5023522;28;20236;-52
2022/06/07 03:31:14;;;;;;;168.20;84.32;;;;;;;;;;5024169;28;20507;-52
2022/06/07 03:33:41;;;;;;;137.10;77.35;;;;;;;;;;5025900;28;20579;-52
2022/06/07 03:36:12;;;;;;;120.40;72.35;;;;;;;;;;5010430;28;20710;-52
2022/06/07 03:38:39;;;;;;;131.57;78.93;;;;;;;;;;5030146;28;20734;-52
2022/06/07 03:41:05;;;;;;;85.25;67.30;;;;;;;;;;5030652;28;20706;-52
2022/06/07 03:43:32;;;;;;;148.82;86.65;;;;;;;;;;5028741;28;20223;-52
2022/06/07 03:46:06;;;;;;;130.35;78.43;;;;;;;;;;5022899;28;20223;-52
2022/06/07 03:48:32;;;;;;;111.93;72.57;;;;;;;;;;5025679;28;20840;-52
2022/06/07 03:50:58;;;;;;;116.93;73.03;;;;;;;;;;5028828;28;20215;-52
2022/06/07 03:53:24;;;;;;;155.52;87.03;;;;;;;;;;5027855;28;20267;-52
2022/06/07 03:55:53;;;;;;;136.75;84.18;;;;;;;;;;5026128;28;20243;-52
2022/06/07 03:58:19;;;;;;;123.05;78.50;;;;;;;;;;5026798;28;20216;-52
2022/06/07 04:00:45;;;;;;;93.50;71.07;;;;;;;;;;5033240;28;20208;-52
2022/06/07 04:03:11;;;;;;;140.43;86.53;;;;;;;;;;5027347;28;20247;-52
2022/06/07 04:05:44;;;;;;;127.00;83.63;;;;;;;;;;5030424;28;20184;-52
2022/06/07 04:08:13;;;;;;;124.22;83.78;;;;;;;;;;5033609;28;20211;-52
2022/06/07 04:10:46;;;;;;;170.43;93.53;;;;;;;;;;5008026;28;20207;-52
2022/06/07 04:13:13;;;;;;;121.63;83.72;;;;;;;;;;5038873;28;20219;-52
2022/06/07 04:15:39;;;;;;;112.97;80.68;;;;;;;;;;5024742;28;20577;-52
2022/06/07 04:18:06;;;;;;;128.77;83.45;;;;;;;;;;5029121;28;20313;-52
2022/06/07 04:20:32;;;;;;;228.93;106.05;;;;;;;;;;5031611;28;20262;-53
2022/06/07 04:22:57;;;;;;;188.98;99.07;;;;;;;;;;5026286;28;20222;-52
2022/06/07 04:25:24;;;;;;;163.40;92.03;;;;;;;;;;5028950;28;23418;-52
2022/06/07 04:27:50;;;;;;;180.70;94.93;;;;;;;;;;5028040;28;20694;-52
2022/06/07 04:30:16;;;;;;;169.40;98.28;;;;;;;;;;5027276;28;20700;-52
2022/06/07 04:32:46;;;;;;;128.75;87.10;;;;;;;;;;5005964;28;20196;-52
2022/06/07 04:35:15;;;;;;;112.20;80.68;;;;;;;;;;5028507;28;20176;-52
2022/06/07 04:37:41;;;;;;;181.48;98.47;;;;;;;;;;5034278;28;20223;-52
2022/06/07 04:40:07;;;;;;;141.13;85.82;;;;;;;;;;5031022;28;20689;-52
2022/06/07 04:42:33;;;;;;;117.97;84.00;;;;;;;;;;5022563;28;20751;-52
2022/06/07 04:44:59;;;;;;;127.78;81.72;;;;;;;;;;5007692;28;20300;-52
2022/06/07 04:47:25;;;;;;;179.25;93.68;;;;;;;;;;5025385;28;20226;-52
2022/06/07 04:49:51;;;;;;;177.85;97.53;;;;;;;;;;5028997;28;20207;-52
2022/06/07 04:52:17;;;;;;;140.02;86.43;;;;;;;;;;5032798;28;20213;-52
2022/06/07 04:54:43;;;;;;;86.88;76.72;;;;;;;;;;5035353;28;20215;-52
2022/06/07 04:57:09;;;;;;;198.93;103.97;;;;;;;;;;5020478;28;20226;-52
2022/06/07 04:59:35;;;;;;;158.35;94.63;;;;;;;;;;5026744;28;20551;-52
2022/06/07 05:02:01;;;;;;;112.20;84.97;;;;;;;;;;5031548;28;20283;-52
2022/06/07 05:04:27;;;;;;;128.80;88.97;;;;;;;;;;5030322;28;20839;-52
2022/06/07 05:06:53;;;;;;;119.20;88.38;;;;;;;;;;5037062;28;20244;-52
2022/06/07 05:09:22;;;;;;;122.45;90.50;;;;;;;;;;5039718;28;20231;-52
2022/06/07 05:11:48;;;;;;;126.68;95.32;;;;;;;;;;5034580;28;20245;-52
2022/06/07 05:14:15;;;;;;;126.63;96.57;;;;;;;;;;5033956;28;20440;-52
2022/06/07 05:16:42;;;;;;;122.05;97.35;;;;;;;;;;5037289;28;20212;-52
2022/06/07 05:19:10;;;;;;;120.53;96.82;;;;;;;;;;5040036;28;20211;-52
2022/06/07 05:21:36;;;;;;;181.65;109.88;;;;;;;;;;5039240;28;20517;-52
2022/06/07 05:24:02;;;;;;;128.57;100.80;;;;;;;;;;5037410;28;20273;-52
2022/06/07 05:26:33;;;;;;;106.95;94.68;;;;;;;;;;5036327;28;20183;-52
2022/06/07 05:28:59;;;;;;;114.97;99.50;;;;;;;;;;5038220;28;20669;-54
2022/06/07 05:31:26;;;;;;;107.68;96.18;;;;;;;;;;5048045;28;20210;-53
2022/06/07 05:33:52;;;;;;;122.80;98.88;;;;;;;;;;5049125;28;20714;-53
2022/06/07 05:36:18;;;;;;;118.10;102.18;;;;;;;;;;5044081;28;20476;-53
2022/06/07 05:38:45;;;;;;;134.23;112.95;;;;;;;;;;5040984;28;20280;-53
2022/06/07 05:41:15;;;;;;;200.52;130.57;;;;;;;;;;5033579;28;20184;-53
2022/06/07 05:43:41;;;;;;;175.43;120.45;;;;;;;;;;5037155;28;20703;-53
2022/06/07 05:46:08;;;;;;;200.10;128.23;;;;;;;;;;5031800;28;20223;-53
2022/06/07 05:48:35;;;;;;;125.50;112.28;;;;;;;;;;5038073;28;20235;-54
2022/06/07 05:51:01;;;;;;;178.27;128.38;;;;;;;;;;5041829;28;20211;-54
2022/06/07 05:53:27;;;;;;;135.18;114.65;;;;;;;;;;5038105;28;20201;-53
2022/06/07 05:55:54;;;;;;;167.82;126.22;;;;;;;;;;5020100;28;20302;-56
2022/06/07 05:58:20;;;;;;;150.88;119.53;;;;;;;;;;5038989;28;20620;-53
2022/06/07 06:00:46;;;;;;;151.88;123.53;;;;;;;;;;5034448;28;20226;-54
2022/06/07 06:03:13;;;;;;;182.95;130.90;;;;;;;;;;5036174;28;20212;-54
2022/06/07 06:05:45;;;;;;;130.18;116.10;;;;;;;;;;5036291;28;20314;-54
2022/06/07 06:11:09;;;;;;;154.70;125.15;;;;;;;;;;5038728;28;20229;-53
2022/06/07 06:13:36;;;;;;;184.45;133.80;;;;;;;;;;5034564;28;20219;-53
2022/06/07 06:16:03;;;;;;;264.48;160.90;;;;;;;;;;5011728;28;20483;-53
2022/06/07 06:18:29;;;;;;;145.43;121.50;;;;;;;;;;5033176;28;21011;-53
2022/06/07 06:20:55;;;;;;;247.10;154.25;;;;;;;;;;5010712;28;20223;-53
2022/06/07 06:23:21;;;;;;;252.43;146.43;;;;;;;;;;5031123;28;20176;-53
2022/06/07 06:25:47;;;;;;;201.93;132.23;;;;;;;;;;5031134;28;20691;-52
2022/06/07 06:28:13;;;;;;;275.88;167.10;;;;;;;;;;5036450;28;20222;-52
2022/06/07 06:30:43;;;;;;;188.10;143.90;;;;;;;;;;5009206;28;20635;-51
2022/06/07 06:33:08;;;;;;;244.65;162.27;;;;;;;;;;5028691;28;20212;-54
2022/06/07 06:35:34;;;;;;;232.32;161.55;;;;;;;;;;5011709;28;20313;-54
2022/06/07 06:38:00;;;;;;;213.77;153.90;;;;;;;;;;5034214;28;20204;-54
2022/06/07 06:40:26;;;;;;;242.35;157.63;;;;;;;;;;5025220;28;20227;-51
2022/06/07 06:42:52;;;;;;;236.48;160.93;;;;;;;;;;5027098;28;20299;-52
2022/06/07 06:45:18;;;;;;;276.70;179.38;;;;;;;;;;5025472;28;20234;-51
2022/06/07 06:47:44;;;;;;;156.57;133.45;;;;;;;;;;5037407;28;20285;-52
2022/06/07 06:50:11;;;;;;;145.43;131.05;;;;;;;;;;5031907;28;20171;-53
2022/06/07 06:52:37;;;;;;;174.02;143.77;;;;;;;;;;5055797;28;20261;-52
2022/06/07 06:55:03;;;;;;;169.23;137.77;;;;;;;;;;5050472;28;20215;-53
2022/06/07 06:57:29;;;;;;;189.15;145.90;;;;;;;;;;5050213;28;20588;-51
2022/06/07 06:59:55;;;;;;;175.85;142.65;;;;;;;;;;5050859;28;20317;-50
2022/06/07 07:02:21;;;;;;;152.80;136.80;;;;;;;;;;5050880;28;20179;-53
2022/06/07 07:04:46;;;;;;;175.75;141.00;;;;;;;;;;5051439;28;20215;-53
2022/06/07 07:07:12;;;;;;;153.32;134.00;;;;;;;;;;5050335;28;20227;-53
2022/06/07 07:09:38;;;;;;;150.65;133.60;;;;;;;;;;5050761;28;20207;-52
2022/06/07 07:12:05;;;;;;;149.70;133.82;;;;;;;;;;5050086;28;20713;-52
2022/06/07 07:14:30;;;;;;;166.18;140.00;;;;;;;;;;5046871;28;20178;-52
2022/06/07 07:16:56;;;;;;;149.05;133.25;;;;;;;;;;5050011;28;20215;-52
2022/06/07 07:19:22;;;;;;;169.98;145.18;;;;;;;;;;5049737;28;20693;-53
2022/06/07 07:21:49;;;;;;;169.90;142.77;;;;;;;;;;5061051;28;20222;-52
2022/06/07 07:24:20;;;;;;;168.20;144.70;;;;;;;;;;5050486;28;20215;-52
2022/06/07 07:26:46;;;;;;;155.48;138.73;;;;;;;;;;5041921;28;20226;-52
2022/06/07 07:29:14;;;;;;;181.73;149.57;;;;;;;;;;5043281;28;20291;-52
2022/06/07 07:31:40;;;;;;;162.40;144.65;;;;;;;;;;5048040;28;20214;-52
2022/06/07 07:34:08;;;;;;;163.18;145.07;;;;;;;;;;5046263;28;20696;-52
2022/06/07 07:36:35;;;;;;;177.65;148.23;;;;;;;;;;5050332;28;20290;-52
2022/06/07 07:39:01;;;;;;;153.23;137.65;;;;;;;;;;5051623;28;20294;-53
2022/06/07 07:41:28;;;;;;;159.40;142.02;;;;;;;;;;5048018;28;20191;-51
2022/06/07 07:43:55;;;;;;;190.57;153.65;;;;;;;;;;5047215;28;20711;-52
2022/06/07 07:46:22;;;;;;;167.65;145.30;;;;;;;;;;5051104;28;20611;-51
2022/06/07 07:48:49;;;;;;;155.75;139.43;;;;;;;;;;5044277;28;20239;-52
2022/06/07 07:51:22;;;;;;;184.10;152.38;;;;;;;;;;5044324;28;20233;-52
2022/06/07 07:53:48;;;;;;;174.77;149.98;;;;;;;;;;5042249;28;20205;-53
2022/06/07 07:56:15;;;;;;;161.00;143.45;;;;;;;;;;5044359;28;21085;-52
2022/06/07 07:58:41;;;;;;;179.07;153.57;;;;;;;;;;5024332;28;20325;-53
2022/06/07 08:01:12;;;;;;;174.43;148.43;;;;;;;;;;5043633;28;20207;-52
2022/06/07 08:03:39;;;;;;;225.30;173.45;;;;;;;;;;5047219;28;20216;-53
2022/06/07 08:06:05;;;;;;;185.30;151.65;;;;;;;;;;5039840;28;20215;-52
2022/06/07 08:08:31;;;;;;;192.10;158.02;;;;;;;;;;5047500;28;20211;-52
2022/06/07 08:10:57;;;;;;;158.52;142.05;;;;;;;;;;5048106;28;20249;-53
2022/06/07 08:13:23;;;;;;;193.93;153.93;;;;;;;;;;5048515;28;20299;-53
2022/06/07 08:15:49;;;;;;;177.32;149.23;;;;;;;;;;5048548;28;20663;-52
2022/06/07 08:18:15;;;;;;;310.25;200.45;;;;;;;;;;5035209;28;20278;-52
2022/06/07 08:20:41;;;;;;;282.23;200.70;;;;;;;;;;5021853;28;20599;-52
2022/06/07 08:23:07;;;;;;;260.67;183.77;;;;;;;;;;5018393;28;20606;-52
2022/06/07 08:25:33;;;;;;;263.23;192.10;;;;;;;;;;5031894;28;20623;-52
2022/06/07 08:28:02;;;;;;;249.38;180.95;;;;;;;;;;5024787;28;20218;-52
2022/06/07 08:30:27;;;;;;;220.35;170.55;;;;;;;;;;5023876;28;20203;-53
2022/06/07 08:32:53;;;;;;;291.77;194.68;;;;;;;;;;5021855;28;22951;-52
2022/06/07 08:38:05;;;;;;;263.13;195.45;;;;;;;;;;5023720;28;20367;-52
2022/06/07 08:40:33;;;;;;;256.25;188.70;;;;;;;;;;5024556;28;20349;-52
2022/06/07 08:43:00;;;;;;;252.80;186.43;;;;;;;;;;5027077;28;20218;-53
2022/06/07 08:45:32;;;;;;;222.60;169.45;;;;;;;;;;5035527;28;20265;-53
2022/06/07 08:48:00;;;;;;;256.85;181.98;;;;;;;;;;5032612;28;20320;-52
2022/06/07 08:50:33;;;;;;;268.92;189.60;;;;;;;;;;5030341;28;21258;-53
2022/06/07 08:53:11;;;;;;;207.95;161.18;;;;;;;;;;5047832;28;20215;-53
2022/06/07 08:55:40;;;;;;;214.88;169.88;;;;;;;;;;5040576;28;20219;-53
2022/06/07 08:58:15;;;;;;;226.65;177.80;;;;;;;;;;5032307;28;20212;-52
2022/06/07 09:00:43;;;;;;;212.45;170.30;;;;;;;;;;5031385;28;20524;-53
2022/06/07 09:03:20;;;;;;;226.68;171.55;;;;;;;;;;5038557;28;20214;-53
2022/06/07 09:05:51;;;;;;;199.43;166.02;;;;;;;;;;5037224;28;20229;-53
2022/06/07 09:08:17;;;;;;;222.32;175.07;;;;;;;;;;5040570;28;20211;-53
2022/06/07 09:13:34;;;;;;;227.00;173.40;;;;;;;;;;5048572;28;20254;-53
2022/06/07 09:16:00;;;;;;;225.70;185.30;;;;;;;;;;5038103;28;20307;-52
2022/06/07 09:18:28;;;;;;;231.50;190.60;;;;;;;;;;5041218;28;20745;-53
2022/06/07 09:20:57;;;;;;;297.70;216.27;;;;;;;;;;5038187;28;20216;-53
2022/06/07 09:23:28;;;;;;;304.60;226.45;;;;;;;;;;5041627;28;20210;-52
2022/06/07 09:25:55;;;;;;;240.15;197.35;;;;;;;;;;5037897;28;20251;-53
2022/06/07 09:28:26;;;;;;;219.75;186.68;;;;;;;;;;5044002;28;20242;-55
2022/06/07 09:31:05;;;;;;;252.25;203.75;;;;;;;;;;5043881;28;20262;-53
2022/06/07 09:33:33;;;;;;;267.13;197.23;;;;;;;;;;5045991;28;20223;-53
2022/06/07 09:36:06;;;;;;;213.13;175.60;;;;;;;;;;5036400;28;20220;-52
2022/06/07 09:38:34;;;;;;;283.08;203.85;;;;;;;;;;5040819;28;20257;-53
2022/06/07 09:41:36;;;;;;;240.30;188.90;;;;;;;;;;5038739;28;20664;-53
2022/06/07 09:43:52;;;;;;;292.75;211.20;;;;;;;;;;5043978;28;20242;-53
2022/06/07 09:46:25;;;;;;;245.73;209.77;;;;;;;;;;5039887;28;20212;-53
2022/06/07 09:48:51;;;;;;;274.10;220.93;;;;;;;;;;5046763;28;20582;-53
2022/06/07 09:51:19;;;;;;;264.83;221.10;;;;;;;;;;5044457;28;20208;-53
2022/06/07 09:54:03;;;;;;;303.33;236.20;;;;;;;;;;5047503;28;20486;-54
2022/06/07 09:56:34;;;;;;;269.70;207.20;;;;;;;;;;5050602;28;20529;-53
2022/06/07 09:59:12;;;;;;;282.05;210.90;;;;;;;;;;5046457;28;20211;-53
2022/06/07 10:01:43;;;;;;;264.77;208.82;;;;;;;;;;5040837;28;20575;-53
2022/06/07 10:04:15;;;;;;;285.38;229.45;;;;;;;;;;5032986;28;20204;-53
2022/06/07 10:06:44;;;;;;;332.27;236.27;;;;;;;;;;5040900;28;20261;-53
2022/06/07 10:09:18;;;;;;;283.40;222.27;;;;;;;;;;5039791;28;20306;-52
2022/06/07 10:11:49;;;;;;;361.17;260.27;;;;;;;;;;5030348;28;20205;-53
2022/06/07 10:14:47;;;;;;;380.20;255.85;;;;;;;;;;5045559;28;20183;-54
2022/06/07 10:17:26;;;;;;;298.50;223.15;;;;;;;;;;4992677;28;20239;-53
2022/06/07 10:20:11;;;;;;;254.48;191.77;;;;;;;;;;5040710;28;20222;-53
2022/06/07 10:22:55;;;;;;;242.82;189.02;;;;;;;;;;5043419;28;20307;-53
2022/06/07 10:25:29;;;;;;;257.48;201.40;;;;;;;;;;5051415;28;20204;-53
2022/06/07 10:28:13;;;;;;;246.57;201.20;;;;;;;;;;5045171;28;20220;-53
2022/06/07 10:30:43;;;;;;;239.18;197.93;;;;;;;;;;5049529;28;20813;-53
2022/06/07 10:33:28;;;;;;;236.52;205.25;;;;;;;;;;5051167;28;20281;-53
2022/06/07 10:35:57;;;;;;;255.35;213.10;;;;;;;;;;5048231;28;20207;-55
2022/06/07 10:38:47;;;;;;;279.45;220.57;;;;;;;;;;5045499;28;20206;-52
2022/06/07 10:41:31;;;;;;;241.73;204.38;;;;;;;;;;5047940;28;20571;-53
2022/06/07 10:44:05;;;;;;;257.42;206.18;;;;;;;;;;5046144;28;20210;-53
2022/06/07 10:46:37;;;;;;;246.40;209.10;;;;;;;;;;5046079;28;20219;-53
2022/06/07 10:49:06;;;;;;;250.77;209.43;;;;;;;;;;5050101;28;20587;-52
2022/06/07 10:54:29;;;;;;;244.10;213.23;;;;;;;;;;5050259;28;20219;-53
2022/06/07 10:57:05;;;;;;;248.45;214.85;;;;;;;;;;5049089;28;20222;-53
2022/06/07 10:59:31;;;;;;;245.95;213.07;;;;;;;;;;5054990;28;20183;-53
2022/06/07 11:02:01;;;;;;;242.55;210.98;;;;;;;;;;5053142;28;20211;-53
2022/06/07 11:10:27;;;;;;;261.60;204.93;;;;;;;;;;5050316;28;20874;-53
2022/06/07 11:12:56;;;;;;;269.92;212.63;;;;;;;;;;5041158;28;20234;-53
2022/06/07 11:15:26;;;;;;;253.27;216.73;;;;;;;;;;5052034;28;20675;-52
2022/06/07 11:18:07;;;;;;;254.30;218.73;;;;;;;;;;5046534;28;20215;-53
2022/06/07 11:20:37;;;;;;;262.55;223.18;;;;;;;;;;5042624;28;20175;-53
2022/06/07 11:23:06;;;;;;;255.65;211.27;;;;;;;;;;5031790;28;20180;-53
2022/06/07 11:25:34;;;;;;;267.83;214.40;;;;;;;;;;5038905;28;20223;-53
2022/06/07 11:28:06;;;;;;;258.20;209.57;;;;;;;;;;5040306;28;20227;-53
2022/06/07 11:30:37;;;;;;;256.02;205.50;;;;;;;;;;5045437;28;20211;-53
2022/06/07 11:33:03;;;;;;;228.70;189.80;;;;;;;;;;5047709;28;20206;-53
2022/06/07 11:35:48;;;;;;;259.85;203.95;;;;;;;;;;5052740;28;20182;-53
2022/06/07 11:38:17;;;;;;;239.82;192.02;;;;;;;;;;5049549;28;20223;-53
2022/06/07 11:40:43;;;;;;;230.80;191.65;;;;;;;;;;5052778;28;20246;-54
2022/06/07 11:43:28;;;;;;;220.57;185.82;;;;;;;;;;5051350;28;20470;-53
2022/06/07 11:45:54;;;;;;;215.40;180.23;;;;;;;;;;5059424;28;20649;-53
2022/06/07 11:48:24;;;;;;;250.85;197.23;;;;;;;;;;5048916;28;20227;-53
2022/06/07 11:51:10;;;;;;;238.85;199.32;;;;;;;;;;5053185;28;20171;-54
2022/06/07 11:53:38;;;;;;;239.50;198.48;;;;;;;;;;5043663;28;20351;-53
2022/06/07 11:56:23;;;;;;;244.80;194.25;;;;;;;;;;5049571;28;20198;-54
2022/06/07 11:58:53;;;;;;;244.57;191.32;;;;;;;;;;5043135;28;20222;-54
2022/06/07 12:01:32;;;;;;;235.73;187.60;;;;;;;;;;5049237;28;20212;-54
2022/06/07 12:04:18;;;;;;;221.90;181.27;;;;;;;;;;5049138;28;20211;-53
2022/06/07 12:06:45;;;;;;;236.65;186.43;;;;;;;;;;5047043;28;20215;-54
2022/06/07 12:09:16;;;;;;;268.60;207.18;;;;;;;;;;5056869;28;20580;-54
2022/06/07 12:11:43;;;;;;;255.38;199.45;;;;;;;;;;5048522;28;20618;-54
2022/06/07 12:14:18;;;;;;;228.18;188.38;;;;;;;;;;5034592;28;20168;-53
2022/06/07 12:17:05;;;;;;;245.75;197.02;;;;;;;;;;5048165;28;20640;-53
2022/06/07 12:19:32;;;;;;;241.38;187.95;;;;;;;;;;5060784;28;20241;-53
2022/06/07 12:22:01;;;;;;;253.40;198.13;;;;;;;;;;5056561;28;20298;-54
2022/06/07 12:24:28;;;;;;;205.32;183.43;;;;;;;;;;5049960;28;20234;-54
2022/06/07 12:26:54;;;;;;;224.75;197.48;;;;;;;;;;5054968;28;20667;-53
2022/06/07 12:29:28;;;;;;;267.90;212.50;;;;;;;;;;5047742;28;20215;-54
2022/06/07 12:31:56;;;;;;;245.43;200.60;;;;;;;;;;5051659;28;20695;-53
2022/06/07 12:34:23;;;;;;;228.80;204.30;;;;;;;;;;5051161;28;20372;-53
2022/06/07 12:36:52;;;;;;;242.05;197.10;;;;;;;;;;5051895;28;20572;-53
2022/06/07 12:39:19;;;;;;;258.05;205.93;;;;;;;;;;5027554;28;20212;-53
2022/06/07 12:41:56;;;;;;;245.35;196.32;;;;;;;;;;5048991;28;20258;-53
2022/06/07 12:44:25;;;;;;;225.90;184.30;;;;;;;;;;5047552;28;20191;-54
2022/06/07 12:46:51;;;;;;;196.32;169.57;;;;;;;;;;5052705;28;20411;-53
2022/06/07 12:49:28;;;;;;;242.52;196.32;;;;;;;;;;5050831;28;20716;-53
2022/06/07 12:51:59;;;;;;;230.13;187.85;;;;;;;;;;5052902;28;20219;-53
2022/06/07 12:54:25;;;;;;;247.43;196.55;;;;;;;;;;5036810;28;20253;-53
2022/06/07 12:56:52;;;;;;;230.57;189.23;;;;;;;;;;5052371;28;20652;-53
2022/06/07 12:59:22;;;;;;;223.23;181.65;;;;;;;;;;5050350;28;20266;-53
2022/06/07 13:01:49;;;;;;;234.43;189.60;;;;;;;;;;5059710;28;20211;-53
2022/06/07 13:04:36;;;;;;;237.27;200.90;;;;;;;;;;5052441;28;20712;-53
2022/06/07 13:07:02;;;;;;;232.93;189.85;;;;;;;;;;5043210;28;20326;-53
2022/06/07 13:09:28;;;;;;;230.10;190.35;;;;;;;;;;5044846;28;20306;-54
2022/06/07 13:11:56;;;;;;;246.77;191.68;;;;;;;;;;5051496;28;20230;-53
2022/06/07 13:14:22;;;;;;;228.40;198.07;;;;;;;;;;5051424;28;20190;-54
2022/06/07 13:16:49;;;;;;;225.30;187.40;;;;;;;;;;5054790;28;20653;-53
2022/06/07 13:19:14;;;;;;;226.82;195.75;;;;;;;;;;5051450;28;20247;-54
2022/06/07 13:21:40;;;;;;;245.25;198.85;;;;;;;;;;5056071;28;20269;-53
2022/06/07 13:24:15;;;;;;;226.93;191.63;;;;;;;;;;5052578;28;20229;-54
2022/06/07 13:26:43;;;;;;;233.10;186.73;;;;;;;;;;5058530;28;20194;-53
2022/06/07 13:29:09;;;;;;;225.68;189.20;;;;;;;;;;5060432;28;20210;-53
2022/06/07 13:31:51;;;;;;;262.45;199.50;;;;;;;;;;5052127;28;20668;-53
2022/06/07 13:34:20;;;;;;;233.07;185.65;;;;;;;;;;5051746;28;20216;-53
2022/06/07 13:37:05;;;;;;;225.23;186.70;;;;;;;;;;5049077;28;20214;-54
2022/06/07 13:39:32;;;;;;;241.10;194.00;;;;;;;;;;5059659;28;20230;-53
2022/06/07 13:42:14;;;;;;;236.02;201.38;;;;;;;;;;5051629;28;20246;-53
2022/06/07 13:44:45;;;;;;;218.60;189.70;;;;;;;;;;5048811;28;20636;-54
2022/06/07 13:47:29;;;;;;;243.68;189.13;;;;;;;;;;5043812;28;20541;-53
2022/06/07 13:53:21;;;;;;;233.38;198.32;;;;;;;;;;5050785;28;20207;-53
2022/06/07 13:55:50;;;;;;;246.35;199.80;;;;;;;;;;5051917;28;20238;-53
2022/06/07 13:58:16;;;;;;;227.65;191.27;;;;;;;;;;5051487;28;20226;-56
2022/06/07 14:00:42;;;;;;;219.73;183.88;;;;;;;;;;5052236;28;20223;-53
2022/06/07 14:03:26;;;;;;;222.18;189.13;;;;;;;;;;5051981;28;20308;-53
2022/06/07 14:05:52;;;;;;;232.48;184.55;;;;;;;;;;5055214;28;22770;-54
2022/06/07 14:08:18;;;;;;;225.18;185.40;;;;;;;;;;5052460;28;20287;-53
2022/06/07 14:10:44;;;;;;;211.00;173.75;;;;;;;;;;5050598;28;20691;-53
2022/06/07 14:13:10;;;;;;;205.32;172.20;;;;;;;;;;5052022;28;20702;-54
2022/06/07 14:15:36;;;;;;;203.07;173.23;;;;;;;;;;5051845;28;20211;-53
2022/06/07 14:18:02;;;;;;;214.15;178.63;;;;;;;;;;5052938;28;20226;-53
2022/06/07 14:20:31;;;;;;;207.90;185.40;;;;;;;;;;5052391;28;20184;-53
2022/06/07 14:22:57;;;;;;;213.25;181.05;;;;;;;;;;5033789;28;20219;-53
2022/06/07 14:25:25;;;;;;;211.63;170.25;;;;;;;;;;5051654;28;20218;-53
2022/06/07 14:27:51;;;;;;;219.93;175.30;;;;;;;;;;5050848;28;20215;-53
2022/06/07 14:30:18;;;;;;;213.00;171.73;;;;;;;;;;5051262;28;20553;-53
2022/06/07 14:32:51;;;;;;;216.00;174.38;;;;;;;;;;5064516;28;20296;-53